Time;durP1;ratioP1;P1;durP2;ratioP2;P2;SDS_P1;SDS_P2;PMS_P1;PMS_P2;Temp;Humidity;BMP_temperature;BMP_pressure;BME280_temperature;BME280_humidity;BME280_pressure;Samples;Min_cycle;Max_cycle;Signal;HPM_P1;HPM_P2
2023/03/20 00:01:09;;;;;;;;;;;;;;;11.30;100.00;98044.31;5124981;27;19966;-65
2023/03/20 00:03:36;;;;;;;;;;;;;;;11.30;100.00;98042.44;5120065;28;19951;-66
2023/03/20 00:06:02;;;;;;;;;;;;;;;11.47;100.00;98047.56;5121695;28;19924;-66
2023/03/20 00:08:31;;;;;;;;;;;;;;;11.62;100.00;98047.59;5123548;28;19969;-66
2023/03/20 00:10:58;;;;;;;;;;;;;;;11.71;100.00;98048.69;5122627;28;19924;-66
2023/03/20 00:13:27;;;;;;;;;;;;;;;11.82;100.00;98052.19;5119904;28;19924;-66
2023/03/20 00:15:53;;;;;;;;;;;;;;;11.89;100.00;98052.69;5119973;28;19924;-66
2023/03/20 00:18:21;;;;;;;;;;;;;;;11.94;100.00;98052.72;5123251;28;19924;-66
2023/03/20 00:20:48;;;;;;;;;;;;;;;11.96;100.00;98055.13;5123228;28;19930;-66
2023/03/20 00:23:15;;;;;;;;;;;;;;;11.96;100.00;98060.47;5119760;28;20343;-66
2023/03/20 00:25:44;;;;;;;;;;;;;;;11.96;100.00;98061.28;5119733;28;19959;-66
2023/03/20 00:28:31;;;;;;;;;;;;;;;12.00;100.00;98061.56;5122323;28;19987;-66
2023/03/20 00:30:57;;;;;;;;;;;;;;;11.88;100.00;98062.59;5125202;27;19924;-66
2023/03/20 00:33:25;;;;;;;;;;;;;;;11.56;100.00;98062.03;5119337;28;19924;-66
2023/03/20 00:35:52;;;;;;;;;;;;;;;11.31;100.00;98060.09;5119375;28;19924;-65
2023/03/20 00:38:18;;;;;;;;;;;;;;;11.39;100.00;98058.75;5122731;28;19962;-65
2023/03/20 00:40:46;;;;;;;;;;;;;;;11.41;100.00;98059.31;5122423;28;19924;-65
2023/03/20 00:43:14;;;;;;;;;;;;;;;11.49;100.00;98066.00;5119737;28;19947;-66
2023/03/20 00:45:41;;;;;;;;;;;;;;;11.61;100.00;98067.38;5118866;28;19969;-65
2023/03/20 00:48:09;;;;;;;;;;;;;;;11.50;100.00;98064.94;5121533;28;19979;-65
2023/03/20 00:50:35;;;;;;;;;;;;;;;11.50;100.00;98067.63;5122350;28;19928;-65
2023/03/20 00:53:02;;;;;;;;;;;;;;;11.59;100.00;98068.72;5120836;28;20332;-66
2023/03/20 00:55:29;;;;;;;;;;;;;;;11.70;100.00;98063.13;5119084;28;19991;-66
2023/03/20 00:57:58;;;;;;;;;;;;;;;11.75;100.00;98065.81;5119514;28;20617;-65
2023/03/20 01:00:26;;;;;;;;;;;;;;;11.82;100.00;98073.59;5125959;27;19924;-65
2023/03/20 01:02:53;;;;;;;;;;;;;;;11.72;100.00;98070.91;5122113;28;19942;-66
2023/03/20 01:05:20;;;;;;;;;;;;;;;11.60;100.00;98060.44;5119037;28;19974;-66
2023/03/20 01:07:47;;;;;;;;;;;;;;;11.40;100.00;98068.41;5118544;28;19935;-65
2023/03/20 01:10:14;;;;;;;;;;;;;;;11.12;100.00;98067.00;5121943;28;20115;-65
2023/03/20 01:12:41;;;;;;;;;;;;;;;11.23;100.00;98070.50;5122252;28;19926;-65
2023/03/20 01:15:16;;;;;;;;;;;;;;;11.34;100.00;98064.09;5119956;28;19930;-65
2023/03/20 01:17:42;;;;;;;;;;;;;;;11.47;100.00;98063.63;5118636;28;19924;-65
2023/03/20 01:20:14;;;;;;;;;;;;;;;11.57;100.00;98054.81;5154616;27;20129;-65
2023/03/20 01:22:40;;;;;;;;;;;;;;;11.38;100.00;98054.50;5122066;28;19924;-65
2023/03/20 01:25:07;;;;;;;;;;;;;;;11.42;100.00;98054.78;5120083;28;19934;-65
2023/03/20 01:27:33;;;;;;;;;;;;;;;11.52;100.00;98060.13;5118598;28;20327;-65
2023/03/20 01:30:00;;;;;;;;;;;;;;;11.55;100.00;98060.41;5123503;28;19923;-65
2023/03/20 01:32:27;;;;;;;;;;;;;;;11.58;100.00;98057.19;5122952;28;19920;-65
2023/03/20 01:34:54;;;;;;;;;;;;;;;11.56;100.00;98051.31;5122656;28;19923;-65
2023/03/20 01:37:23;;;;;;;;;;;;;;;11.58;100.00;98046.50;5119425;28;19930;-65
2023/03/20 01:39:50;;;;;;;;;;;;;;;11.54;100.00;98047.31;5119132;28;19935;-65
2023/03/20 01:42:17;;;;;;;;;;;;;;;11.59;100.00;98052.66;5110127;28;19987;-65
2023/03/20 01:44:44;;;;;;;;;;;;;;;11.62;100.00;98063.63;5109945;28;19927;-65
2023/03/20 01:47:14;;;;;;;;;;;;;;;11.61;100.00;98059.34;5110114;28;19946;-65
2023/03/20 01:49:59;;;;;;;;;;;;;;;11.58;100.00;98059.06;5109908;28;19931;-65
2023/03/20 01:52:27;;;;;;;;;;;;;;;11.18;100.00;98055.25;5110254;28;19980;-65
2023/03/20 01:54:53;;;;;;;;;;;;;;;10.90;100.00;98062.88;5110323;28;19920;-65
2023/03/20 01:57:23;;;;;;;;;;;;;;;10.81;100.00;98049.22;5126178;28;19928;-65
2023/03/20 01:59:51;;;;;;;;;;;;;;;10.97;100.00;98053.56;5121584;28;19936;-65
2023/03/20 02:02:19;;;;;;;;;;;;;;;11.13;100.00;98054.44;5118408;28;19932;-65
2023/03/20 02:04:47;;;;;;;;;;;;;;;11.29;100.00;98056.09;5118542;28;19967;-65
2023/03/20 02:07:16;;;;;;;;;;;;;;;11.25;100.00;98049.66;5121742;28;19920;-65
2023/03/20 02:09:44;;;;;;;;;;;;;;;11.30;100.00;98050.47;5121622;28;19982;-65
2023/03/20 02:12:10;;;;;;;;;;;;;;;11.47;100.00;98047.56;5118090;28;19928;-66
2023/03/20 02:14:37;;;;;;;;;;;;;;;11.50;100.00;98049.72;5118397;28;19924;-66
2023/03/20 02:17:05;;;;;;;;;;;;;;;11.52;100.00;98050.25;5120093;28;19963;-66
2023/03/20 02:19:39;;;;;;;;;;;;;;;11.53;100.00;98061.75;5124737;28;19923;-66
2023/03/20 02:22:18;;;;;;;;;;;;;;;11.54;100.00;98069.53;5123498;28;19959;-66
2023/03/20 02:25:01;;;;;;;;;;;;;;;11.57;100.00;98078.88;5122042;28;19974;-66
2023/03/20 02:27:34;;;;;;;;;;;;;;;11.57;100.00;98078.88;5112664;28;19924;-65
2023/03/20 02:30:19;;;;;;;;;;;;;;;11.58;100.00;98072.44;5117134;27;19930;-65
2023/03/20 02:33:01;;;;;;;;;;;;;;;11.57;100.00;98071.66;5125254;28;19931;-66
2023/03/20 02:35:49;;;;;;;;;;;;;;;11.34;100.00;98072.13;5121751;28;20551;-66
2023/03/20 02:38:31;;;;;;;;;;;;;;;11.11;100.00;98075.28;5125191;28;19930;-66
2023/03/20 02:41:01;;;;;;;;;;;;;;;11.20;100.00;98073.72;5124066;28;19928;-66
2023/03/20 02:43:32;;;;;;;;;;;;;;;11.30;100.00;98071.84;5121536;28;19962;-66
2023/03/20 02:46:03;;;;;;;;;;;;;;;11.34;100.00;98066.78;5122422;28;19931;-66
2023/03/20 02:48:38;;;;;;;;;;;;;;;11.29;100.00;98072.94;5125006;28;19928;-64
2023/03/20 02:51:10;;;;;;;;;;;;;;;11.16;100.00;98061.94;5123377;28;19920;-65
2023/03/20 02:53:43;;;;;;;;;;;;;;;11.19;100.00;98072.09;5121365;28;19955;-65
2023/03/20 02:56:12;;;;;;;;;;;;;;;11.24;100.00;98070.22;5124046;28;19924;-65
2023/03/20 02:58:43;;;;;;;;;;;;;;;11.32;100.00;98068.94;5124858;28;19924;-65
2023/03/20 03:01:12;;;;;;;;;;;;;;;11.30;100.00;98071.84;5125679;27;19923;-65
2023/03/20 03:03:42;;;;;;;;;;;;;;;11.19;100.00;98072.91;5121177;28;19987;-64
2023/03/20 03:06:11;;;;;;;;;;;;;;;10.84;100.00;98081.56;5123830;28;19947;-65
2023/03/20 03:08:41;;;;;;;;;;;;;;;10.52;100.00;98083.53;5124648;28;19976;-65
2023/03/20 03:11:09;;;;;;;;;;;;;;;10.45;100.00;98082.16;5122440;28;19931;-65
2023/03/20 03:13:38;;;;;;;;;;;;;;;10.19;100.00;98078.50;5121046;28;19920;-65
2023/03/20 03:16:06;;;;;;;;;;;;;;;10.10;100.00;98085.34;5123129;28;19970;-65
2023/03/20 03:18:35;;;;;;;;;;;;;;;10.20;100.00;98085.47;5124387;28;19920;-65
2023/03/20 03:21:04;;;;;;;;;;;;;;;10.36;100.00;98095.19;5122658;28;19924;-65
2023/03/20 03:23:32;;;;;;;;;;;;;;;10.59;100.00;98084.09;5120581;28;19935;-65
2023/03/20 03:26:00;;;;;;;;;;;;;;;10.73;100.00;98077.25;5121718;28;19924;-65
2023/03/20 03:28:35;;;;;;;;;;;;;;;10.87;100.00;98076.75;5124280;28;19924;-65
2023/03/20 03:31:03;;;;;;;;;;;;;;;10.79;100.00;98083.44;5126149;27;19923;-65
2023/03/20 03:33:31;;;;;;;;;;;;;;;10.53;100.00;98077.13;5120699;28;19959;-65
2023/03/20 03:36:02;;;;;;;;;;;;;;;10.72;100.00;98086.31;5121438;28;20517;-65
2023/03/20 03:38:30;;;;;;;;;;;;;;;10.82;100.00;98089.06;5124032;28;19995;-65
2023/03/20 03:41:02;;;;;;;;;;;;;;;10.96;100.00;98091.22;5123011;28;19991;-65
2023/03/20 03:43:33;;;;;;;;;;;;;;;11.04;100.00;98075.53;5120510;28;19935;-65
2023/03/20 03:46:02;;;;;;;;;;;;;;;11.10;100.00;98084.34;5121408;28;19931;-65
2023/03/20 03:48:30;;;;;;;;;;;;;;;11.13;100.00;98099.88;5124146;28;19959;-65
2023/03/20 03:51:00;;;;;;;;;;;;;;;11.17;100.00;98099.06;5122774;28;19924;-65
2023/03/20 03:53:30;;;;;;;;;;;;;;;11.19;100.00;98106.84;5120832;28;19925;-65
2023/03/20 03:56:00;;;;;;;;;;;;;;;11.18;100.00;98107.91;5121399;28;19936;-65
2023/03/20 03:58:28;;;;;;;;;;;;;;;11.18;100.00;98108.72;5124040;28;19931;-65
2023/03/20 04:00:57;;;;;;;;;;;;;;;11.14;100.00;98112.19;5127115;27;20021;-65
2023/03/20 04:03:27;;;;;;;;;;;;;;;11.07;100.00;98115.09;5120338;28;19924;-64
2023/03/20 04:05:55;;;;;;;;;;;;;;;11.01;100.00;98112.66;5120632;28;19951;-65
2023/03/20 04:08:21;;;;;;;;;;;;;;;11.00;100.00;98116.38;5123782;28;20582;-65
2023/03/20 04:10:47;;;;;;;;;;;;;;;10.95;100.00;98108.34;5123972;28;20711;-65
2023/03/20 04:13:15;;;;;;;;;;;;;;;10.92;100.00;98108.88;5120407;28;19970;-65
2023/03/20 04:15:41;;;;;;;;;;;;;;;10.89;100.00;98109.38;5119790;28;19928;-66
2023/03/20 04:18:14;;;;;;;;;;;;;;;10.94;100.00;98110.22;5122128;28;19925;-66
2023/03/20 04:20:40;;;;;;;;;;;;;;;11.00;100.00;98111.03;5122992;28;19975;-66
2023/03/20 04:23:07;;;;;;;;;;;;;;;11.02;100.00;98111.56;5120790;28;19930;-65
2023/03/20 04:25:33;;;;;;;;;;;;;;;11.07;100.00;98119.63;5119469;28;19966;-65
2023/03/20 04:27:59;;;;;;;;;;;;;;;11.07;100.00;98115.09;5120604;28;19924;-65
2023/03/20 04:30:26;;;;;;;;;;;;;;;11.02;100.00;98115.03;5119997;28;19920;-65
2023/03/20 04:32:52;;;;;;;;;;;;;;;11.00;100.00;98119.84;5119311;28;19928;-65
2023/03/20 04:35:20;;;;;;;;;;;;;;;10.93;100.00;98123.81;5119505;28;19971;-65
2023/03/20 04:37:46;;;;;;;;;;;;;;;10.73;100.00;98114.66;5119454;28;19947;-65
2023/03/20 04:40:13;;;;;;;;;;;;;;;10.73;100.00;98128.00;5122048;28;19983;-65
2023/03/20 04:42:39;;;;;;;;;;;;;;;10.75;100.00;98127.72;5122214;28;19983;-65
2023/03/20 04:45:06;;;;;;;;;;;;;;;10.86;100.00;98129.41;5120463;28;19984;-65
2023/03/20 04:47:33;;;;;;;;;;;;;;;10.91;100.00;98128.63;5119035;28;19924;-65
2023/03/20 04:49:59;;;;;;;;;;;;;;;10.96;100.00;98129.44;5120047;28;19935;-65
2023/03/20 04:52:27;;;;;;;;;;;;;;;10.99;100.00;98125.44;5122506;28;19947;-65
2023/03/20 04:54:53;;;;;;;;;;;;;;;11.01;100.00;98123.34;5122187;28;19958;-65
2023/03/20 04:57:19;;;;;;;;;;;;;;;11.03;100.00;98126.53;5118785;28;19924;-65
2023/03/20 04:59:46;;;;;;;;;;;;;;;11.02;100.00;98125.72;5120896;27;19920;-65
2023/03/20 05:02:13;;;;;;;;;;;;;;;11.02;100.00;98130.28;5122796;27;20026;-65
2023/03/20 05:04:40;;;;;;;;;;;;;;;11.01;100.00;98128.69;5122361;28;19924;-65
2023/03/20 05:07:07;;;;;;;;;;;;;;;10.92;100.00;98128.38;5120183;28;19927;-65
2023/03/20 05:09:34;;;;;;;;;;;;;;;10.95;100.00;98121.72;5118567;28;19924;-65
2023/03/20 05:12:00;;;;;;;;;;;;;;;10.93;100.00;98134.50;5119830;28;19924;-65
2023/03/20 05:14:27;;;;;;;;;;;;;;;10.94;100.00;98128.09;5122128;28;19991;-65
2023/03/20 05:16:53;;;;;;;;;;;;;;;10.90;100.00;98130.50;5121817;28;19931;-65
2023/03/20 05:19:20;;;;;;;;;;;;;;;10.91;100.00;98137.44;5118611;28;19946;-65
2023/03/20 05:21:46;;;;;;;;;;;;;;;10.92;100.00;98130.25;5118307;28;20059;-65
2023/03/20 05:24:12;;;;;;;;;;;;;;;10.93;100.00;98131.84;5121862;28;19927;-65
2023/03/20 05:26:40;;;;;;;;;;;;;;;10.94;100.00;98130.78;5122126;28;19935;-65
2023/03/20 05:29:06;;;;;;;;;;;;;;;10.96;100.00;98140.13;5120289;28;19979;-65
2023/03/20 05:31:33;;;;;;;;;;;;;;;10.95;100.00;98143.91;5111927;28;19959;-65
2023/03/20 05:33:59;;;;;;;;;;;;;;;10.96;100.00;98142.00;5119500;28;19971;-66
2023/03/20 05:36:25;;;;;;;;;;;;;;;10.93;100.00;98137.97;5121861;28;20536;-65
2023/03/20 05:38:52;;;;;;;;;;;;;;;10.97;100.00;98138.28;5121525;28;19945;-65
2023/03/20 05:41:18;;;;;;;;;;;;;;;10.91;100.00;98155.34;5118236;28;19986;-65
2023/03/20 05:43:46;;;;;;;;;;;;;;;10.77;100.00;98145.09;5118070;28;20429;-65
2023/03/20 05:46:12;;;;;;;;;;;;;;;10.64;100.00;98153.59;5121121;28;20026;-64
2023/03/20 05:48:38;;;;;;;;;;;;;;;10.61;100.00;98162.13;5121577;28;19999;-65
2023/03/20 05:51:05;;;;;;;;;;;;;;;10.65;100.00;98157.84;5119626;28;19959;-65
2023/03/20 05:53:31;;;;;;;;;;;;;;;10.73;100.00;98170.75;5119484;28;19985;-65
2023/03/20 05:55:58;;;;;;;;;;;;;;;10.63;100.00;98169.88;5123476;28;19952;-65
2023/03/20 05:58:24;;;;;;;;;;;;;;;10.55;100.00;98168.47;5126412;28;19955;-65
2023/03/20 06:00:52;;;;;;;;;;;;;;;10.62;100.00;98171.72;5130112;27;19991;-65
2023/03/20 06:03:18;;;;;;;;;;;;;;;10.72;100.00;98174.47;5114045;28;19952;-64
2023/03/20 06:05:45;;;;;;;;;;;;;;;10.77;100.00;98161.13;5114053;28;19931;-66
2023/03/20 06:08:12;;;;;;;;;;;;;;;10.79;100.00;98169.72;5114002;28;19920;-66
2023/03/20 06:10:38;;;;;;;;;;;;;;;10.76;100.00;98167.56;5113771;28;19956;-64
2023/03/20 06:13:05;;;;;;;;;;;;;;;10.73;100.00;98176.09;5113854;28;19924;-66
2023/03/20 06:15:31;;;;;;;;;;;;;;;10.78;100.00;98175.31;5113655;28;19924;-66
2023/03/20 06:17:59;;;;;;;;;;;;;;;10.64;100.00;98188.31;5113662;28;19991;-66
2023/03/20 06:20:26;;;;;;;;;;;;;;;10.45;100.00;98188.97;5113762;28;19956;-66
2023/03/20 06:22:52;;;;;;;;;;;;;;;10.50;100.00;98192.47;5113306;28;19928;-66
2023/03/20 06:25:18;;;;;;;;;;;;;;;10.54;100.00;98196.25;5113841;28;19935;-65
2023/03/20 06:27:45;;;;;;;;;;;;;;;10.62;100.00;98189.59;5113350;28;19981;-66
2023/03/20 06:30:12;;;;;;;;;;;;;;;10.68;100.00;98189.41;5115212;28;19950;-66
2023/03/20 06:32:39;;;;;;;;;;;;;;;10.64;100.00;98198.19;5120119;28;19958;-65
2023/03/20 06:35:08;;;;;;;;;;;;;;;10.51;100.00;98190.59;5123753;28;19923;-65
2023/03/20 06:37:35;;;;;;;;;;;;;;;10.52;100.00;98198.34;5121768;28;19924;-65
2023/03/20 06:40:02;;;;;;;;;;;;;;;10.60;100.00;98208.56;5122936;28;19938;-65
2023/03/20 06:42:28;;;;;;;;;;;;;;;10.68;100.00;98205.41;5125220;28;19934;-65
2023/03/20 06:44:55;;;;;;;;;;;;;;;10.59;100.00;98201.63;5124553;28;19924;-65
2023/03/20 06:47:21;;;;;;;;;;;;;;;10.32;100.00;98198.19;5121447;28;19924;-65
2023/03/20 06:49:48;;;;;;;;;;;;;;;10.26;100.00;98201.88;5121714;28;19988;-65
2023/03/20 06:52:17;;;;;;;;;;;;;;;10.35;100.00;98200.34;5125053;28;19923;-65
2023/03/20 06:54:43;;;;;;;;;;;;;;;10.45;100.00;98196.97;5124972;28;19928;-66
2023/03/20 06:57:10;;;;;;;;;;;;;;;10.40;100.00;98203.06;5122637;28;19971;-65
2023/03/20 06:59:36;;;;;;;;;;;;;;;10.25;100.00;98200.25;5121490;28;19931;-65
2023/03/20 07:02:03;;;;;;;;;;;;;;;10.35;100.00;98203.03;5126871;27;19920;-66
2023/03/20 07:04:29;;;;;;;;;;;;;;;10.48;100.00;98189.25;5124249;28;19945;-66
2023/03/20 07:06:56;;;;;;;;;;;;;;;10.55;100.00;98205.06;5124225;28;19924;-67
2023/03/20 07:09:24;;;;;;;;;;;;;;;10.60;100.00;98208.56;5121244;28;19928;-66
2023/03/20 07:11:50;;;;;;;;;;;;;;;10.64;100.00;98207.00;5121083;28;19924;-66
2023/03/20 07:14:16;;;;;;;;;;;;;;;10.63;100.00;98209.94;5124532;28;19974;-66
2023/03/20 07:16:43;;;;;;;;;;;;;;;10.63;100.00;98210.72;5124272;28;19928;-65
2023/03/20 07:19:10;;;;;;;;;;;;;;;10.64;100.00;98216.88;5122066;28;20056;-65
2023/03/20 07:21:36;;;;;;;;;;;;;;;10.58;100.00;98224.06;5120856;28;19950;-66
2023/03/20 07:24:03;;;;;;;;;;;;;;;10.57;100.00;98225.13;5122120;28;20647;-65
2023/03/20 07:26:30;;;;;;;;;;;;;;;10.56;100.00;98231.50;5124367;28;20680;-65
2023/03/20 07:28:57;;;;;;;;;;;;;;;10.56;100.00;98230.69;5123726;28;19924;-66
2023/03/20 07:31:25;;;;;;;;;;;;;;;10.65;100.00;98239.84;5114049;28;20014;-65
2023/03/20 07:33:51;;;;;;;;;;;;;;;10.70;100.00;98239.91;5119525;28;19950;-65
2023/03/20 07:36:17;;;;;;;;;;;;;;;10.67;100.00;98243.91;5112150;28;20014;-66
2023/03/20 07:38:44;;;;;;;;;;;;;;;10.79;100.00;98246.38;5111808;28;19959;-66
2023/03/20 07:41:10;;;;;;;;;;;;;;;10.86;100.00;98241.63;5111987;28;19920;-65
2023/03/20 07:43:38;;;;;;;;;;;;;;;10.91;100.00;98241.66;5118986;28;19939;-65
2023/03/20 07:46:06;;;;;;;;;;;;;;;10.91;100.00;98248.88;5111871;28;19924;-65
2023/03/20 07:48:33;;;;;;;;;;;;;;;10.81;100.00;98239.72;5111716;28;20739;-65
2023/03/20 07:50:59;;;;;;;;;;;;;;;10.85;100.00;98240.00;5121400;28;19924;-65
2023/03/20 07:53:25;;;;;;;;;;;;;;;10.76;100.00;98234.34;5123920;28;19923;-66
2023/03/20 07:55:52;;;;;;;;;;;;;;;10.90;100.00;98233.88;5124058;28;19955;-65
2023/03/20 07:58:18;;;;;;;;;;;;;;;10.84;100.00;98233.84;5120927;28;19984;-65
2023/03/20 08:00:46;;;;;;;;;;;;;;;10.98;100.00;98239.56;5120625;28;19920;-65
2023/03/20 08:03:12;;;;;;;;;;;;;;;10.97;100.00;98232.63;5119232;28;19928;-66
2023/03/20 08:05:39;;;;;;;;;;;;;;;10.92;100.00;98242.47;5120101;28;19966;-66
2023/03/20 08:08:05;;;;;;;;;;;;;;;10.90;100.00;98248.06;5121980;28;19964;-66
2023/03/20 08:10:32;;;;;;;;;;;;;;;10.92;100.00;98245.94;5123507;28;19923;-65
2023/03/20 08:12:58;;;;;;;;;;;;;;;11.01;100.00;98240.94;5121831;28;19974;-65
2023/03/20 08:15:24;;;;;;;;;;;;;;;10.98;100.00;98238.75;5119401;28;19935;-65
2023/03/20 08:17:52;;;;;;;;;;;;;;;10.88;100.00;98231.47;5128214;28;19966;-66
2023/03/20 08:20:20;;;;;;;;;;;;;;;10.97;100.00;98240.63;5111574;28;19935;-65
2023/03/20 08:22:48;;;;;;;;;;;;;;;11.07;100.00;98235.34;5111089;28;19987;-65
2023/03/20 08:25:15;;;;;;;;;;;;;;;11.24;100.00;98240.53;5111011;28;19943;-65
2023/03/20 08:27:41;;;;;;;;;;;;;;;11.25;100.00;98234.94;5111137;28;19924;-65
2023/03/20 08:30:09;;;;;;;;;;;;;;;11.28;100.00;98230.94;5112593;28;19934;-65
2023/03/20 08:32:36;;;;;;;;;;;;;;;11.33;100.00;98230.94;5117069;28;20578;-65
2023/03/20 08:35:04;;;;;;;;;;;;;;;11.34;100.00;98232.56;5121685;28;19983;-66
2023/03/20 08:37:31;;;;;;;;;;;;;;;11.15;100.00;98239.41;5119346;28;19924;-66
2023/03/20 08:39:57;;;;;;;;;;;;;;;11.18;100.00;98238.88;5119774;28;20019;-66
2023/03/20 08:42:23;;;;;;;;;;;;;;;11.27;100.00;98237.31;5122840;28;19986;-66
2023/03/20 08:44:49;;;;;;;;;;;;;;;11.42;100.00;98236.63;5121421;28;19959;-66
2023/03/20 08:47:16;;;;;;;;;;;;;;;11.52;100.00;98237.47;5118781;28;19955;-66
2023/03/20 08:49:43;;;;;;;;;;;;;;;11.14;100.00;98248.50;5118441;28;19967;-66
2023/03/20 08:52:10;;;;;;;;;;;;;;;11.33;100.00;98237.09;5120867;28;19924;-66
2023/03/20 08:54:37;;;;;;;;;;;;;;;11.61;100.00;98240.44;5121935;28;19927;-66
2023/03/20 08:57:03;;;;;;;;;;;;;;;11.49;100.00;98242.53;5119913;28;19950;-66
2023/03/20 08:59:30;;;;;;;;;;;;;;;11.16;100.00;98247.19;5118204;28;19963;-66
2023/03/20 09:01:56;;;;;;;;;;;;;;;11.35;100.00;98236.84;5112087;28;19928;-65
2023/03/20 09:04:22;;;;;;;;;;;;;;;11.18;100.00;98233.53;5121479;28;20019;-65
2023/03/20 09:06:50;;;;;;;;;;;;;;;11.15;100.00;98239.41;5121932;28;19963;-65
2023/03/20 09:09:20;;;;;;;;;;;;;;;11.35;100.00;98234.19;5118744;28;19991;-65
2023/03/20 09:11:47;;;;;;;;;;;;;;;11.35;100.00;98242.19;5118483;28;19920;-65
2023/03/20 09:14:13;;;;;;;;;;;;;;;11.30;100.00;98234.13;5121531;28;19983;-65
2023/03/20 09:16:40;;;;;;;;;;;;;;;11.47;100.00;98240.13;5121624;28;20354;-66
2023/03/20 09:19:06;;;;;;;;;;;;;;;11.16;100.00;98236.47;5118641;28;19983;-65
2023/03/20 09:21:32;;;;;;;;;;;;;;;11.10;100.00;98236.72;5118410;28;19947;-65
2023/03/20 09:23:59;;;;;;;;;;;;;;;11.39;100.00;98241.41;5118972;28;19925;-65
2023/03/20 09:26:27;;;;;;;;;;;;;;;11.65;100.00;98250.38;5121934;28;19992;-66
2023/03/20 09:28:53;;;;;;;;;;;;;;;11.70;100.00;98236.22;5120981;28;20047;-65
2023/03/20 09:31:19;;;;;;;;;;;;;;;11.81;100.00;98235.22;5111351;28;19964;-65
2023/03/20 09:33:45;;;;;;;;;;;;;;;11.95;100.00;98241.66;5117803;28;19975;-65
2023/03/20 09:36:12;;;;;;;;;;;;;;;11.93;100.00;98237.63;5120591;28;20827;-65
2023/03/20 09:38:40;;;;;;;;;;;;;;;12.10;100.00;98235.56;5121149;28;19924;-65
2023/03/20 09:41:14;;;;;;;;;;;;;;;11.66;100.00;98241.28;5118931;28;19947;-66
2023/03/20 09:43:57;;;;;;;;;;;;;;;11.72;100.00;98244.81;5117290;28;19927;-66
2023/03/20 09:46:32;;;;;;;;;;;;;;;11.68;100.00;98244.50;5109201;28;19931;-66
2023/03/20 09:49:02;;;;;;;;;;;;;;;11.93;100.00;98237.63;5109167;28;19966;-66
2023/03/20 09:51:31;;;;;;;;;;;;;;;12.12;100.00;98236.09;5109124;28;19924;-66
2023/03/20 09:54:01;;;;;;;;;;;;;;;12.31;100.00;98234.53;5108928;28;19984;-66
2023/03/20 09:56:29;;;;;;;;;;;;;;;12.32;100.00;98234.25;5116060;28;19927;-66
2023/03/20 09:58:58;;;;;;;;;;;;;;;11.82;100.00;98237.59;5117153;28;19928;-65
2023/03/20 10:01:26;;;;;;;;;;;;;;;11.64;100.00;98235.38;5121307;28;19984;-66
2023/03/20 10:03:55;;;;;;;;;;;;;;;11.68;100.00;98233.78;5117323;28;19928;-67
2023/03/20 10:06:21;;;;;;;;;;;;;;;11.98;100.00;98230.44;5108830;28;19964;-66
2023/03/20 10:08:48;;;;;;;;;;;;;;;12.26;100.00;98221.91;5109017;28;20582;-66
2023/03/20 10:11:22;;;;;;;;;;;;;;;12.44;100.00;98229.44;5108939;28;19963;-66
2023/03/20 10:13:55;;;;;;;;;;;;;;;12.13;100.00;98232.34;5116084;28;19966;-66
2023/03/20 10:16:29;;;;;;;;;;;;;;;12.44;100.00;98226.75;5117198;28;19931;-66
2023/03/20 10:19:01;;;;;;;;;;;;;;;12.49;100.00;98225.97;5118765;28;20031;-66
2023/03/20 10:21:32;;;;;;;;;;;;;;;12.37;100.00;98220.88;5122714;28;19958;-66
2023/03/20 10:24:02;;;;;;;;;;;;;;;12.48;100.00;98220.88;5120055;28;19959;-66
2023/03/20 10:26:28;;;;;;;;;;;;;;;12.53;100.00;98215.53;5117221;28;19970;-66
2023/03/20 10:28:57;;;;;;;;;;;;;;;12.68;100.00;98212.84;5117315;28;19935;-66
2023/03/20 10:31:34;;;;;;;;;;;;;;;12.92;100.00;98216.56;5126583;28;19924;-67
2023/03/20 10:34:13;;;;;;;;;;;;;;;13.03;100.00;98215.47;5118229;28;19988;-66
2023/03/20 10:36:46;;;;;;;;;;;;;;;13.18;100.00;98206.63;5120553;28;19970;-66
2023/03/20 10:39:16;;;;;;;;;;;;;;;13.18;100.00;98209.31;5118508;28;20022;-66
2023/03/20 10:41:47;;;;;;;;;;;;;;;13.05;100.00;98207.16;5120904;28;19951;-66
2023/03/20 10:44:16;;;;;;;;;;;;;;;12.89;100.00;98204.50;5123799;28;19946;-66
2023/03/20 10:46:47;;;;;;;;;;;;;;;12.93;100.00;98205.59;5124128;28;19924;-66
2023/03/20 10:49:16;;;;;;;;;;;;;;;12.95;100.00;98195.38;5121419;28;19970;-66
2023/03/20 10:51:47;;;;;;;;;;;;;;;12.85;100.00;98206.13;5120482;28;19988;-66
2023/03/20 10:54:21;;;;;;;;;;;;;;;12.94;100.00;98203.69;5123544;28;19935;-65
2023/03/20 10:56:48;;;;;;;;;;;;;;;12.97;100.00;98200.47;5124207;28;19995;-66
2023/03/20 10:59:20;;;;;;;;;;;;;;;12.74;100.00;98201.84;5120933;28;20455;-66
2023/03/20 11:01:48;;;;;;;;;;;;;;;12.84;100.00;98201.03;5124473;27;19955;-66
2023/03/20 11:04:14;;;;;;;;;;;;;;;12.86;100.00;98201.56;5123477;28;19962;-65
2023/03/20 11:06:46;;;;;;;;;;;;;;;12.88;100.00;98196.72;5123810;28;20023;-66
2023/03/20 11:09:17;;;;;;;;;;;;;;;13.03;100.00;98187.88;5121272;28;19924;-67
2023/03/20 11:11:45;;;;;;;;;;;;;;;13.24;100.00;98184.91;5120669;28;19923;-66
2023/03/20 11:14:17;;;;;;;;;;;;;;;13.37;100.00;98180.81;5123364;28;19952;-66
2023/03/20 11:16:47;;;;;;;;;;;;;;;13.41;100.00;98189.91;5123863;28;19978;-66
2023/03/20 11:19:16;;;;;;;;;;;;;;;13.40;100.00;98186.44;5121191;28;19928;-66
2023/03/20 11:21:47;;;;;;;;;;;;;;;13.40;100.00;98181.06;5120512;28;19924;-67
2023/03/20 11:24:22;;;;;;;;;;;;;;;13.51;100.00;98185.31;5123177;28;19934;-66
2023/03/20 11:26:48;;;;;;;;;;;;;;;13.54;100.00;98186.66;5122477;28;19920;-67
2023/03/20 11:29:18;;;;;;;;;;;;;;;13.58;100.00;98184.22;5120460;28;19968;-65
2023/03/20 11:31:44;;;;;;;;;;;;;;;13.51;100.00;98179.97;5123788;27;19924;-65
2023/03/20 11:34:20;;;;;;;;;;;;;;;13.60;100.00;98187.44;5122488;28;20019;-65
2023/03/20 11:36:54;;;;;;;;;;;;;;;13.24;100.00;98184.09;5123333;28;19994;-66
2023/03/20 11:39:22;;;;;;;;;;;;;;;13.26;100.00;98184.59;5119803;28;19935;-66
2023/03/20 11:41:50;;;;;;;;;;;;;;;13.29;100.00;98179.50;5119586;28;19987;-66
2023/03/20 11:44:23;;;;;;;;;;;;;;;13.09;100.00;98176.09;5122898;28;20485;-67
2023/03/20 11:46:55;;;;;;;;;;;;;;;13.14;100.00;98184.13;5123134;28;19991;-66
2023/03/20 11:49:24;;;;;;;;;;;;;;;13.19;100.00;98178.72;5111285;28;19924;-66
2023/03/20 11:51:52;;;;;;;;;;;;;;;13.24;100.00;98168.81;5110962;28;19938;-66
2023/03/20 11:54:20;;;;;;;;;;;;;;;13.31;100.00;98173.84;5111020;28;20003;-66
2023/03/20 11:56:54;;;;;;;;;;;;;;;13.27;100.00;98170.13;5110821;28;19939;-66
2023/03/20 11:59:21;;;;;;;;;;;;;;;13.19;100.00;98171.47;5110754;28;20613;-66
2023/03/20 12:01:49;;;;;;;;;;;;;;;13.31;100.00;98173.84;5123208;27;19939;-65
2023/03/20 12:04:16;;;;;;;;;;;;;;;13.22;100.00;98168.25;5122297;28;19953;-67
2023/03/20 12:06:46;;;;;;;;;;;;;;;13.17;100.00;98173.66;5122874;28;20061;-67
2023/03/20 12:09:23;;;;;;;;;;;;;;;13.02;100.00;98176.34;5118563;28;19928;-66
2023/03/20 12:11:52;;;;;;;;;;;;;;;13.20;100.00;98166.94;5119151;28;19971;-66
2023/03/20 12:14:22;;;;;;;;;;;;;;;12.95;100.00;98173.13;5119185;28;19928;-67
2023/03/20 12:16:51;;;;;;;;;;;;;;;13.09;100.00;98168.06;5119105;28;19928;-65
2023/03/20 12:19:20;;;;;;;;;;;;;;;13.22;100.00;98170.13;5123778;28;19938;-68
2023/03/20 12:21:52;;;;;;;;;;;;;;;13.36;100.00;98173.84;5123779;28;19939;-67
2023/03/20 12:24:26;;;;;;;;;;;;;;;13.22;100.00;98176.31;5122857;28;19966;-66
2023/03/20 12:26:56;;;;;;;;;;;;;;;13.23;100.00;98180.59;5122257;28;20014;-66
2023/03/20 12:29:25;;;;;;;;;;;;;;;13.26;100.00;98179.25;5110185;28;19963;-67
2023/03/20 12:31:55;;;;;;;;;;;;;;;13.12;100.00;98181.69;5122534;27;19955;-65
2023/03/20 12:34:23;;;;;;;;;;;;;;;12.97;100.00;98190.53;5118949;28;19960;-66
2023/03/20 12:36:51;;;;;;;;;;;;;;;13.05;100.00;98188.41;5118626;28;20105;-66
2023/03/20 12:39:20;;;;;;;;;;;;;;;12.93;100.00;98184.16;5118631;28;19924;-66
2023/03/20 12:41:55;;;;;;;;;;;;;;;12.92;100.00;98181.72;5118601;28;19920;-66